Leagueville, Texas
Current Conditions -  °F | °C
As of 4:15 PM on Thursday 18 Dec 2014 (Local Time) from KF44 Reporting Station
Overcast Overcast  
Wind Chill: 50°   Ceiling: 500
Heat Index: 50°   Visibility: 7mi
Dew Point: 46°   Wind: 0mph
Humidity: 87%   Direction: NA
Pressure: 30.1"   Gusts: NA
Location:  32.327°N, 95.8011°W
Report Text: KF44 182215Z AUTO 00000KT 7SM OVC005 10/08 A3010 RMK AO2
Loading
Personal Weather Stations






























Interactive Weather Map New forecast layout! Learn more

10-Day Weather Forecast

Advertisements
Track Severe Weather on mobile